Aviation Digital Data Service (ADDS)

Output produced by METARs form (1604 UTC 20 May 2018)
found at http://aviationweather.gov/adds/metars/
 
METAR text: RJNK 201500Z 05003KT 9999 FEW030 BKN180 BKN/// 14/09 Q1020
Conditions at: RJNK (KOMATSU (CIV/JAS, JP) observed 1500 UTC 20 May 2018
Temperature: 14.0°C (57°F)
Dewpoint: 9.0°C (48°F) [RH = 72%]
Pressure (altimeter): 30.12 inches Hg (1020.0 mb)
Winds: from the NE (50 degrees) at 3 MPH (3 knots; 1.6 m/s)
Visibility: 6 or more miles (10+ km)
Ceiling: 18000 feet AGL
Clouds: few clouds at 3000 feet AGL
broken clouds at 18000 feet AGL
Weather: no significant weather observed at this time